Time;durP1;ratioP1;P1;durP2;ratioP2;P2;SDS_P1;SDS_P2;PMS_P1;PMS_P2;Temp;Humidity;BMP_temperature;BMP_pressure;BME280_temperature;BME280_humidity;BME280_pressure;Samples;Min_cycle;Max_cycle;Signal;HPM_P1;HPM_P2
2023/11/05 00:00:35;;;;;;;453.13;9.05;;;;;;;2.89;100.00;90028.81;6144575;23;20439;-75
2023/11/05 00:03:00;;;;;;;250.98;5.60;;;;;;;2.80;100.00;90030.59;6145567;23;20520;-75
2023/11/05 00:05:26;;;;;;;411.55;8.02;;;;;;;2.85;100.00;90027.88;6144172;22;20431;-75
2023/11/05 00:07:51;;;;;;;683.17;14.00;;;;;;;2.75;100.00;90012.63;6145144;23;20013;-75
2023/11/05 00:10:17;;;;;;;435.95;8.35;;;;;;;2.79;100.00;90010.97;6142817;23;20014;-75
2023/11/05 00:12:43;;;;;;;747.08;14.65;;;;;;;2.82;100.00;90000.06;6145465;23;20502;-75
2023/11/05 00:15:09;;;;;;;563.92;11.70;;;;;;;2.82;100.00;89984.56;6143518;23;20030;-75
2023/11/05 00:17:35;;;;;;;473.23;11.05;;;;;;;2.83;100.00;89983.47;6144294;23;20041;-75
2023/11/05 00:20:06;;;;;;;379.02;9.02;;;;;;;2.87;100.00;89994.75;6142820;23;20002;-75
2023/11/05 00:22:32;;;;;;;105.77;4.37;;;;;;;2.91;100.00;90018.94;6145141;23;20124;-75
2023/11/05 00:24:58;;;;;;;3.50;2.00;;;;;;;2.93;100.00;90011.66;6143735;22;20276;-75
2023/11/05 00:27:23;;;;;;;2.85;1.55;;;;;;;2.97;100.00;90020.31;6145645;23;20473;-75
2023/11/05 00:29:49;;;;;;;1.60;1.23;;;;;;;3.00;100.00;89996.47;6145341;23;20006;-75
2023/11/05 00:32:14;;;;;;;1.63;1.00;;;;;;;3.03;100.00;89989.94;6144900;23;20492;-75
2023/11/05 00:34:41;;;;;;;2.35;1.20;;;;;;;3.22;100.00;89979.31;6145058;23;20029;-75
2023/11/05 00:37:07;;;;;;;1.67;1.15;;;;;;;3.19;100.00;89967.75;6144710;23;20020;-75
2023/11/05 00:39:32;;;;;;;2.03;1.40;;;;;;;3.17;100.00;89940.69;6143227;23;20014;-75
2023/11/05 00:41:58;;;;;;;2.45;1.50;;;;;;;3.16;100.00;89929.59;6118618;23;20455;-75
2023/11/05 00:44:23;;;;;;;2.80;1.70;;;;;;;3.16;100.00;89929.59;6145168;23;20017;-75
2023/11/05 00:46:49;;;;;;;2.30;1.40;;;;;;;3.13;100.00;89930.94;6145320;23;20482;-75
2023/11/05 00:49:15;;;;;;;3.40;1.60;;;;;;;3.19;100.00;89925.63;6145539;23;20009;-75
2023/11/05 00:51:40;;;;;;;2.05;1.40;;;;;;;3.15;100.00;89929.88;6145156;23;20013;-75
2023/11/05 00:54:06;;;;;;;2.28;1.48;;;;;;;3.16;100.00;89934.00;6143432;23;20002;-75
2023/11/05 00:56:32;;;;;;;2.13;1.42;;;;;;;3.16;100.00;89954.69;6145177;23;20434;-75
2023/11/05 00:58:57;;;;;;;2.50;1.40;;;;;;;3.16;100.00;89970.19;6144959;23;20336;-75
2023/11/05 01:01:23;;;;;;;1.95;1.38;;;;;;;3.16;100.00;89972.78;6144422;23;20466;-75
2023/11/05 01:03:49;;;;;;;2.17;1.20;;;;;;;3.18;100.00;89968.06;6144691;23;20541;-76
2023/11/05 01:06:14;;;;;;;1.63;1.15;;;;;;;3.19;100.00;89964.41;6143129;23;20337;-75
2023/11/05 01:08:40;;;;;;;1.05;0.98;;;;;;;3.22;100.00;89974.13;6145204;23;20024;-75
2023/11/05 01:11:06;;;;;;;1.77;1.08;;;;;;;3.25;100.00;89981.31;6145519;23;20017;-75
2023/11/05 01:13:31;;;;;;;0.80;0.80;;;;;;;3.30;100.00;89978.56;6143546;23;20001;-76
2023/11/05 01:15:57;;;;;;;0.80;0.80;;;;;;;3.36;100.00;89974.78;6144691;23;20016;-74
2023/11/05 01:18:23;;;;;;;1.23;0.90;;;;;;;3.37;100.00;89978.88;6142699;23;20005;-74
2023/11/05 01:20:50;;;;;;;12.20;1.38;;;;;;;3.35;100.00;89981.00;6144218;23;20017;-74
2023/11/05 01:23:15;;;;;;;2.47;1.45;;;;;;;3.34;100.00;89971.72;6144664;23;20051;-74
2023/11/05 01:25:41;;;;;;;2.05;1.30;;;;;;;3.30;100.00;89958.63;6144588;23;20319;-74
2023/11/05 01:28:07;;;;;;;2.10;1.33;;;;;;;3.28;100.00;89958.19;6142974;23;20009;-74
2023/11/05 01:30:33;;;;;;;1.95;1.20;;;;;;;3.30;100.00;89957.88;6144392;23;20446;-74
2023/11/05 01:32:58;;;;;;;1.30;1.00;;;;;;;3.34;100.00;89956.22;6143955;23;20355;-74
2023/11/05 01:35:24;;;;;;;2.17;1.33;;;;;;;3.22;100.00;89943.91;6146236;23;20024;-74
2023/11/05 01:37:49;;;;;;;2.42;1.30;;;;;;;3.10;100.00;89944.47;6146133;23;20175;-74
2023/11/05 01:40:16;;;;;;;1.48;1.10;;;;;;;3.18;100.00;89965.47;6145985;23;20022;-74
2023/11/05 01:42:42;;;;;;;1.30;1.10;;;;;;;3.27;100.00;89979.94;6145767;23;20014;-74
2023/11/05 01:45:09;;;;;;;1.55;1.10;;;;;;;3.18;100.00;89975.81;6144150;23;20013;-74
2023/11/05 01:47:34;;;;;;;0.80;0.80;;;;;;;3.13;100.00;89972.31;6145780;23;20435;-74
2023/11/05 01:50:02;;;;;;;2.97;1.30;;;;;;;3.08;100.00;89964.69;6144503;23;20058;-74
2023/11/05 01:52:28;;;;;;;3.67;1.40;;;;;;;3.07;100.00;89960.59;6145988;23;20001;-74
2023/11/05 01:54:55;;;;;;;2.17;1.40;;;;;;;3.09;100.00;89949.97;6146470;23;20078;-74
2023/11/05 01:57:20;;;;;;;2.00;1.30;;;;;;;3.09;100.00;89944.78;6146181;23;20025;-74
2023/11/05 01:59:46;;;;;;;2.28;1.20;;;;;;;3.12;100.00;89947.50;6143850;23;20443;-74
2023/11/05 02:02:14;;;;;;;2.13;1.35;;;;;;;3.16;100.00;89946.94;6119536;23;20006;-74
2023/11/05 02:04:40;;;;;;;1.63;1.20;;;;;;;3.16;100.00;89949.50;6145459;23;20356;-74
2023/11/05 02:07:05;;;;;;;2.05;1.40;;;;;;;3.18;100.00;89942.97;6144382;23;20025;-74
2023/11/05 02:09:31;;;;;;;2.50;1.50;;;;;;;3.19;100.00;89939.31;6144093;23;20029;-74
2023/11/05 02:11:58;;;;;;;2.35;1.45;;;;;;;3.23;100.00;89935.06;6146087;23;20010;-74
2023/11/05 02:14:24;;;;;;;1.85;1.30;;;;;;;3.32;100.00;89937.66;6146243;23;20013;-74
2023/11/05 02:16:50;;;;;;;1.17;1.08;;;;;;;3.33;100.00;89939.16;6120389;23;20002;-74
2023/11/05 02:19:15;;;;;;;1.50;1.10;;;;;;;3.34;100.00;89938.13;6144714;23;20017;-77
2023/11/05 02:21:44;;;;;;;1.17;1.00;;;;;;;3.37;100.00;89944.50;6144021;23;20392;-74
2023/11/05 02:24:09;;;;;;;1.65;1.20;;;;;;;3.40;100.00;89949.84;6146037;23;20090;-74
2023/11/05 02:26:35;;;;;;;1.77;1.27;;;;;;;3.42;100.00;89950.28;6119256;23;20100;-74
2023/11/05 02:29:01;;;;;;;1.33;1.13;;;;;;;3.47;100.00;89950.13;6144220;23;20405;-74
2023/11/05 02:31:26;;;;;;;1.98;1.30;;;;;;;3.67;100.00;89945.41;6143988;23;20510;-74
2023/11/05 02:33:52;;;;;;;3.85;1.20;;;;;;;3.53;100.00;89937.81;6144047;23;20021;-74
2023/11/05 02:36:18;;;;;;;2.45;1.00;;;;;;;3.44;100.00;89924.88;6145734;23;20008;-74
2023/11/05 02:38:44;;;;;;;1.40;1.05;;;;;;;3.41;100.00;89928.06;6120132;23;20021;-74
2023/11/05 02:41:11;;;;;;;1.58;1.00;;;;;;;3.44;100.00;89930.03;6144098;23;20030;-74
2023/11/05 02:43:37;;;;;;;1.38;1.02;;;;;;;3.48;100.00;89930.94;6145760;23;20017;-74
2023/11/05 02:46:03;;;;;;;1.50;1.02;;;;;;;3.47;100.00;89933.88;6144402;23;20016;-74
2023/11/05 02:48:28;;;;;;;1.15;1.00;;;;;;;3.48;100.00;89928.38;6146009;23;20018;-74
2023/11/05 02:50:54;;;;;;;1.45;1.20;;;;;;;3.51;100.00;89924.41;6145936;23;20076;-74
2023/11/05 02:53:21;;;;;;;1.02;0.90;;;;;;;3.52;100.00;89931.88;6146386;23;20017;-74
2023/11/05 02:55:47;;;;;;;0.98;0.90;;;;;;;3.52;100.00;89924.13;6145825;23;20077;-74
2023/11/05 02:58:13;;;;;;;1.20;0.93;;;;;;;3.54;100.00;89911.63;6145153;23;20048;-74
2023/11/05 03:00:39;;;;;;;3.67;1.00;;;;;;;3.58;100.00;89911.00;6146191;23;20063;-74
2023/11/05 03:03:05;;;;;;;1.17;1.08;;;;;;;3.59;100.00;89902.97;6146956;23;20381;-74
2023/11/05 03:05:30;;;;;;;1.02;0.90;;;;;;;3.59;100.00;89902.97;6144208;23;20009;-74
2023/11/05 03:07:56;;;;;;;0.85;0.85;;;;;;;3.61;100.00;89890.47;6144660;23;20018;-74
2023/11/05 03:10:22;;;;;;;0.80;0.80;;;;;;;3.63;100.00;89879.84;6146864;23;20001;-74
2023/11/05 03:12:47;;;;;;;1.67;1.05;;;;;;;3.68;100.00;89867.47;6145476;23;20017;-74
2023/11/05 03:15:13;;;;;;;3.22;1.50;;;;;;;3.64;100.00;89855.47;6145553;23;20485;-74
2023/11/05 03:17:39;;;;;;;0.90;0.75;;;;;;;3.85;100.00;89858.16;6145442;23;20048;-74
2023/11/05 03:20:08;;;;;;;1.08;0.90;;;;;;;3.77;100.00;89866.72;6144709;23;20005;-74
2023/11/05 03:22:35;;;;;;;1.15;0.93;;;;;;;3.73;100.00;89866.56;6146078;23;20018;-74
2023/11/05 03:25:01;;;;;;;1.10;1.00;;;;;;;3.81;100.00;89880.56;6143975;23;20436;-74
2023/11/05 03:27:27;;;;;;;1.23;0.95;;;;;;;3.66;100.00;89863.69;6145158;23;20412;-74
2023/11/05 03:29:53;;;;;;;0.82;0.82;;;;;;;3.57;100.00;89878.47;6119158;23;20041;-74
2023/11/05 03:32:18;;;;;;;0.98;0.80;;;;;;;3.55;100.00;89886.53;6143366;23;20014;-74
2023/11/05 03:34:45;;;;;;;0.90;0.90;;;;;;;3.53;100.00;89886.06;6143727;23;20009;-74
2023/11/05 03:37:11;;;;;;;0.95;0.82;;;;;;;3.57;100.00;89881.06;6119242;23;20009;-74
2023/11/05 03:39:37;;;;;;;1.25;1.00;;;;;;;3.58;100.00;89873.00;6143865;23;20005;-74
2023/11/05 03:42:07;;;;;;;0.98;0.88;;;;;;;3.60;100.00;89890.78;6144047;23;20023;-74
2023/11/05 03:44:34;;;;;;;0.80;0.80;;;;;;;3.63;100.00;89896.13;6145871;23;20062;-74
2023/11/05 03:47:01;;;;;;;0.88;0.88;;;;;;;3.69;100.00;89905.25;6145968;23;20331;-74
2023/11/05 03:49:27;;;;;;;0.80;0.80;;;;;;;3.83;100.00;89897.31;6145410;23;20048;-74
2023/11/05 03:51:52;;;;;;;0.80;0.80;;;;;;;3.77;100.00;89895.19;6145212;23;20056;-74
2023/11/05 03:54:18;;;;;;;0.93;0.73;;;;;;;3.73;100.00;89902.78;6118965;23;20018;-74
2023/11/05 03:56:44;;;;;;;0.70;0.70;;;;;;;3.73;100.00;89911.31;6145207;23;20002;-74
2023/11/05 03:59:09;;;;;;;0.73;0.73;;;;;;;3.74;100.00;89912.09;6144598;23;20256;-75
2023/11/05 04:01:35;;;;;;;0.70;0.70;;;;;;;3.74;100.00;89907.66;6143271;23;20005;-75
2023/11/05 04:04:00;;;;;;;0.93;0.73;;;;;;;3.77;100.00;89903.69;6145327;23;20068;-75
2023/11/05 04:06:26;;;;;;;0.75;0.73;;;;;;;3.78;100.00;89907.78;6143934;23;20096;-75
2023/11/05 04:08:52;;;;;;;1.20;0.80;;;;;;;3.83;100.00;89914.63;6145239;23;20017;-74
2023/11/05 04:11:17;;;;;;;2.40;0.88;;;;;;;3.75;100.00;89918.75;6145174;23;20338;-74
2023/11/05 04:13:44;;;;;;;1.00;0.90;;;;;;;3.72;100.00;89919.38;6145102;23;20014;-74
2023/11/05 04:16:10;;;;;;;1.00;0.90;;;;;;;3.52;100.00;89903.41;6145115;23;19994;-74
2023/11/05 04:18:36;;;;;;;0.98;0.90;;;;;;;3.48;100.00;89897.34;6145616;23;20014;-75
2023/11/05 04:21:01;;;;;;;0.80;0.80;;;;;;;3.45;100.00;89904.97;6144098;23;20082;-75
2023/11/05 04:23:27;;;;;;;0.80;0.80;;;;;;;3.45;100.00;89915.31;6145395;23;20020;-75
2023/11/05 04:25:53;;;;;;;0.82;0.80;;;;;;;3.44;100.00;89909.34;6145631;23;20012;-75
2023/11/05 04:28:18;;;;;;;0.80;0.80;;;;;;;3.46;100.00;89916.81;6143986;23;20088;-74
2023/11/05 04:30:44;;;;;;;1.02;0.90;;;;;;;3.47;100.00;89905.41;6143591;23;20063;-75
2023/11/05 04:33:09;;;;;;;0.95;0.80;;;;;;;3.51;100.00;89922.59;6145133;23;20013;-75
2023/11/05 04:35:35;;;;;;;1.08;0.85;;;;;;;3.55;100.00;89927.91;6144796;23;19998;-75
2023/11/05 04:38:01;;;;;;;0.90;0.90;;;;;;;3.58;100.00;89942.06;6145300;23;20045;-74
2023/11/05 04:40:27;;;;;;;1.00;0.90;;;;;;;3.62;100.00;89935.22;6143619;23;20045;-75
2023/11/05 04:42:52;;;;;;;0.65;0.60;;;;;;;3.66;100.00;89933.53;6144456;23;20018;-74
2023/11/05 04:45:20;;;;;;;0.75;0.75;;;;;;;3.67;100.00;89927.28;6145890;23;20018;-74
2023/11/05 04:47:46;;;;;;;0.80;0.80;;;;;;;3.70;100.00;89935.22;6145298;23;20024;-74
2023/11/05 04:50:12;;;;;;;1.92;0.80;;;;;;;3.69;100.00;89951.03;6144104;23;20281;-74
2023/11/05 04:52:38;;;;;;;0.90;0.90;;;;;;;3.67;100.00;89948.78;6144988;23;20325;-75
2023/11/05 04:55:05;;;;;;;0.73;0.73;;;;;;;3.67;100.00;89938.41;6144874;23;20039;-74
2023/11/05 04:57:32;;;;;;;0.85;0.82;;;;;;;3.67;100.00;89933.25;6144499;23;20041;-74
2023/11/05 04:59:58;;;;;;;0.88;0.88;;;;;;;3.71;100.00;89934.13;6144630;23;20010;-75
2023/11/05 05:02:23;;;;;;;0.88;0.60;;;;;;;3.72;100.00;89929.75;6145461;23;20039;-75
2023/11/05 05:04:51;;;;;;;0.70;0.70;;;;;;;3.75;100.00;89934.28;6145278;23;20006;-75
2023/11/05 05:07:17;;;;;;;0.70;0.70;;;;;;;3.74;100.00;89943.13;6146946;23;20025;-75
2023/11/05 05:09:43;;;;;;;0.70;0.70;;;;;;;3.75;100.00;89944.66;6146566;23;20066;-75
2023/11/05 05:12:09;;;;;;;0.90;0.85;;;;;;;3.68;100.00;89942.50;6147012;23;20018;-75
2023/11/05 05:14:35;;;;;;;0.80;0.80;;;;;;;3.66;100.00;89947.22;6145085;23;20040;-75
2023/11/05 05:17:01;;;;;;;0.80;0.80;;;;;;;3.66;100.00;89946.47;6146179;23;20439;-75
2023/11/05 05:19:27;;;;;;;0.70;0.70;;;;;;;3.65;100.00;89952.72;6145838;23;20002;-75
2023/11/05 05:21:52;;;;;;;1.05;0.88;;;;;;;3.65;100.00;89961.25;6145619;23;20451;-75
2023/11/05 05:24:18;;;;;;;1.15;0.85;;;;;;;3.66;100.00;89962.00;6145892;23;20005;-75
2023/11/05 05:26:44;;;;;;;1.35;0.80;;;;;;;3.66;100.00;89946.47;6144343;23;20069;-75
2023/11/05 05:29:09;;;;;;;0.82;0.82;;;;;;;3.68;100.00;89949.53;6146223;23;20028;-75
2023/11/05 05:31:35;;;;;;;0.88;0.80;;;;;;;3.77;100.00;89952.88;6144758;23;20013;-75
2023/11/05 05:34:01;;;;;;;1.80;0.88;;;;;;;3.80;100.00;89952.25;6144809;23;20056;-74
2023/11/05 05:36:27;;;;;;;0.70;0.70;;;;;;;3.80;100.00;89961.84;6144438;23;20013;-75
2023/11/05 05:38:53;;;;;;;0.82;0.80;;;;;;;3.77;100.00;89963.22;6145763;23;20036;-75
2023/11/05 05:41:18;;;;;;;2.55;0.73;;;;;;;3.76;100.00;89964.28;6229764;22;20016;-75
2023/11/05 05:43:44;;;;;;;1.05;0.90;;;;;;;3.78;100.00;89969.91;6271019;22;20068;-75
2023/11/05 05:46:16;;;;;;;1.52;1.10;;;;;;;3.78;100.00;89959.53;6271195;22;20456;-75
2023/11/05 05:48:43;;;;;;;2.83;1.50;;;;;;;3.79;100.00;89947.38;6271585;22;20007;-75
2023/11/05 05:51:14;;;;;;;2.63;1.50;;;;;;;3.78;100.00;89941.44;6271624;22;20384;-75
2023/11/05 05:53:40;;;;;;;2.72;1.60;;;;;;;3.81;100.00;89961.53;6271927;22;20016;-75
2023/11/05 05:56:06;;;;;;;2.75;1.42;;;;;;;3.78;100.00;89966.56;6271305;22;20011;-75
2023/11/05 05:58:32;;;;;;;4.10;2.00;;;;;;;3.75;100.00;89984.22;6271533;22;20463;-75
2023/11/05 06:00:58;;;;;;;2.20;1.40;;;;;;;3.76;100.00;89982.41;6270633;22;20027;-75
2023/11/05 06:03:24;;;;;;;2.25;1.35;;;;;;;3.74;100.00;89982.69;6271123;22;20011;-75
2023/11/05 06:05:50;;;;;;;3.15;1.38;;;;;;;3.77;100.00;89983.16;6270801;22;20031;-75
2023/11/05 06:08:17;;;;;;;2.30;1.25;;;;;;;3.78;100.00;89962.13;6243698;22;20221;-75
2023/11/05 06:10:42;;;;;;;1.85;0.98;;;;;;;3.78;100.00;89949.19;6244134;22;20340;-75
2023/11/05 06:13:08;;;;;;;1.45;0.90;;;;;;;3.79;100.00;89958.50;6244320;22;20098;-75
2023/11/05 06:15:34;;;;;;;1.40;0.90;;;;;;;3.84;100.00;89971.28;6271431;22;20023;-74
2023/11/05 06:18:00;;;;;;;1.30;0.98;;;;;;;3.85;100.00;89974.63;6271099;22;20020;-74
2023/11/05 06:20:26;;;;;;;1.02;0.90;;;;;;;3.86;100.00;89982.09;6244579;22;20049;-75
2023/11/05 06:22:53;;;;;;;0.88;0.80;;;;;;;3.88;100.00;89982.53;6271744;22;20011;-75
2023/11/05 06:25:19;;;;;;;0.77;0.70;;;;;;;3.92;100.00;89986.03;6271302;22;20065;-74
2023/11/05 06:27:45;;;;;;;1.50;0.90;;;;;;;3.95;100.00;89995.78;6271218;22;20015;-74
2023/11/05 06:30:11;;;;;;;0.70;0.70;;;;;;;3.95;100.00;89990.59;6271163;22;20011;-74
2023/11/05 06:32:41;;;;;;;0.95;0.95;;;;;;;4.01;100.00;89986.03;6244549;22;20089;-75
2023/11/05 06:35:07;;;;;;;1.73;1.10;;;;;;;4.18;100.00;89982.66;6271536;22;20014;-75
2023/11/05 06:37:34;;;;;;;1.52;1.02;;;;;;;4.49;100.00;89986.84;6272289;22;20350;-75
2023/11/05 06:40:00;;;;;;;1.30;1.10;;;;;;;5.12;100.00;90003.38;6241870;22;20334;-75
2023/11/05 06:42:26;;;;;;;4.43;1.25;;;;;;;5.63;100.00;90014.53;6271482;22;20021;-74
2023/11/05 06:44:52;;;;;;;1.15;0.88;;;;;;;6.17;100.00;90023.47;6270819;22;20016;-75
2023/11/05 06:47:18;;;;;;;1.10;1.00;;;;;;;7.06;100.00;90007.44;6270134;22;19999;-75
2023/11/05 06:49:44;;;;;;;1.77;0.90;;;;;;;7.90;100.00;90009.53;6270786;22;20016;-76
2023/11/05 06:52:10;;;;;;;0.88;0.82;;;;;;;8.18;100.00;90014.78;6270211;22;20649;-75
2023/11/05 06:54:36;;;;;;;0.82;0.82;;;;;;;9.20;100.00;90027.44;6243707;22;20015;-75
2023/11/05 06:57:05;;;;;;;4.10;0.88;;;;;;;8.68;100.00;90046.66;6272033;22;20521;-75
2023/11/05 06:59:31;;;;;;;0.65;0.65;;;;;;;8.08;100.00;90049.91;6243880;22;20441;-75
2023/11/05 07:01:59;;;;;;;0.80;0.80;;;;;;;7.64;100.00;90038.56;6270206;22;20057;-75
2023/11/05 07:04:25;;;;;;;1.08;0.98;;;;;;;7.51;100.00;90030.00;6271254;22;20522;-76
2023/11/05 07:06:51;;;;;;;1.30;1.10;;;;;;;7.24;100.00;90034.00;6269801;22;20010;-74
2023/11/05 07:09:16;;;;;;;1.48;1.00;;;;;;;7.02;100.00;90048.19;6269256;22;20069;-75
2023/11/05 07:11:42;;;;;;;2.67;0.98;;;;;;;7.02;100.00;90045.59;6267688;22;20120;-76
2023/11/05 07:14:09;;;;;;;1.35;1.10;;;;;;;7.08;100.00;90039.09;6268299;22;20023;-75
2023/11/05 07:16:35;;;;;;;1.92;1.08;;;;;;;7.43;100.00;90049.06;6268496;22;20019;-75
2023/11/05 07:19:01;;;;;;;0.90;0.90;;;;;;;7.60;100.00;90059.28;6269605;22;20076;-75
2023/11/05 07:21:27;;;;;;;0.82;0.82;;;;;;;8.09;100.00;90072.25;6269496;22;20026;-75
2023/11/05 07:23:53;;;;;;;1.23;1.00;;;;;;;8.33;100.00;90083.69;6243113;22;20015;-75
2023/11/05 07:26:18;;;;;;;0.88;0.88;;;;;;;8.65;100.00;90094.28;6268316;22;20086;-76
2023/11/05 07:28:45;;;;;;;1.23;1.00;;;;;;;8.88;100.00;90092.66;6268696;22;20015;-74
2023/11/05 07:31:21;;;;;;;0.85;0.80;;;;;;;9.07;100.00;90088.66;6267835;22;20107;-75
2023/11/05 07:33:48;;;;;;;1.77;1.00;;;;;;;8.81;100.00;90086.50;6240762;22;20054;-75
2023/11/05 07:36:15;;;;;;;3.47;1.80;;;;;;;8.42;100.00;90107.06;6240196;22;20050;-74
2023/11/05 07:38:41;;;;;;;3.33;1.80;;;;;;;8.03;100.00;90111.88;6268488;22;20068;-76
2023/11/05 07:41:07;;;;;;;41.28;2.20;;;;;;;8.04;100.00;90108.97;6271952;22;20509;-78
2023/11/05 07:43:33;;;;;;;303.80;6.97;;;;;;;7.46;100.00;90110.91;6271635;22;20349;-77
2023/11/05 07:45:59;;;;;;;541.60;11.02;;;;;;;7.03;100.00;90102.50;6271929;22;20430;-77
2023/11/05 07:48:25;;;;;;;472.13;10.18;;;;;;;6.98;100.00;90089.72;6271152;22;20016;-77
2023/11/05 07:50:51;;;;;;;624.03;13.60;;;;;;;6.61;100.00;90094.78;6243132;22;20026;-77
2023/11/05 07:53:20;;;;;;;374.02;8.95;;;;;;;6.32;100.00;90082.63;6270203;22;20090;-76
2023/11/05 07:55:46;;;;;;;236.07;5.78;;;;;;;6.45;100.00;90089.41;6244168;22;20621;-77
2023/11/05 07:58:12;;;;;;;194.13;5.35;;;;;;;6.71;100.00;90087.66;6270489;22;20079;-76
2023/11/05 08:00:40;;;;;;;82.93;3.55;;;;;;;6.90;100.00;90095.75;6270115;22;20019;-77
2023/11/05 08:03:06;;;;;;;17.80;2.67;;;;;;;7.21;100.00;90105.69;6271728;22;20061;-75
2023/11/05 08:05:36;;;;;;;6.78;1.90;;;;;;;7.70;100.00;90117.97;6244362;22;20064;-76
2023/11/05 08:08:01;;;;;;;23.40;2.40;;;;;;;7.68;100.00;90131.31;6243456;22;20012;-76
2023/11/05 08:10:28;;;;;;;3.30;1.88;;;;;;;7.88;100.00;90132.31;6216764;22;20133;-76
2023/11/05 08:12:53;;;;;;;4.10;2.20;;;;;;;8.17;100.00;90137.59;6271213;22;20011;-76
2023/11/05 08:15:20;;;;;;;3.38;1.80;;;;;;;9.14;100.00;90133.97;6270326;22;20007;-77
2023/11/05 08:17:46;;;;;;;2.50;1.50;;;;;;;9.71;100.00;90137.22;6269918;22;20043;-77
2023/11/05 08:20:14;;;;;;;1.30;1.20;;;;;;;10.22;100.00;90144.34;6218737;22;20061;-78
2023/11/05 08:22:41;;;;;;;1.52;1.10;;;;;;;10.35;100.00;90137.19;6271683;22;20022;-77
2023/11/05 08:25:12;;;;;;;3.30;1.77;;;;;;;10.01;100.00;90131.56;6243002;22;20012;-76
2023/11/05 08:27:41;;;;;;;18.70;2.47;;;;;;;9.45;100.00;90118.69;6272043;22;20445;-78
2023/11/05 08:30:11;;;;;;;4.25;2.20;;;;;;;9.29;100.00;90114.19;6244822;22;20078;-78
2023/11/05 08:32:38;;;;;;;5.47;2.13;;;;;;;8.87;100.00;90119.06;6270601;22;20067;-76
2023/11/05 08:35:04;;;;;;;12.07;2.42;;;;;;;8.60;100.00;90110.94;6270902;22;20007;-76
2023/11/05 08:37:30;;;;;;;14.90;2.75;;;;;;;8.33;100.00;90120.97;6270984;22;20011;-77
2023/11/05 08:39:55;;;;;;;3.42;1.90;;;;;;;9.00;100.00;90130.22;6242493;22;20004;-77
2023/11/05 08:42:21;;;;;;;3.65;1.70;;;;;;;9.32;100.00;90134.41;6217422;22;20015;-75
2023/11/05 08:44:47;;;;;;;3.17;1.65;;;;;;;9.58;100.00;90159.28;6270032;22;20058;-76
2023/11/05 08:47:13;;;;;;;4.18;1.20;;;;;;;9.99;100.00;90157.28;6270705;22;20019;-79
2023/11/05 08:49:39;;;;;;;1.70;1.20;;;;;;;10.07;100.00;90166.06;6270791;22;20307;-76
2023/11/05 08:52:06;;;;;;;1.85;1.40;;;;;;;9.99;100.00;90170.34;6243500;22;20018;-79
2023/11/05 08:54:33;;;;;;;3.70;2.08;;;;;;;9.74;100.00;90162.66;6271120;22;20027;-79
2023/11/05 08:56:59;;;;;;;8.23;4.28;;;;;;;9.46;100.00;90162.00;6270426;22;20015;-79
2023/11/05 08:59:26;;;;;;;4.75;2.42;;;;;;;9.32;100.00;90189.25;6245521;22;20387;-78
2023/11/05 09:01:52;;;;;;;2.30;1.30;;;;;;;9.75;100.00;90182.50;6243196;22;20023;-76
2023/11/05 09:04:18;;;;;;;2.05;1.38;;;;;;;9.71;100.00;90178.28;6242882;22;20010;-77
2023/11/05 09:06:47;;;;;;;4.22;1.90;;;;;;;9.43;100.00;90183.53;6269036;22;20026;-76
2023/11/05 09:09:15;;;;;;;17.60;4.75;;;;;;;9.27;100.00;90189.47;6271738;22;20345;-77
2023/11/05 09:11:41;;;;;;;4.95;2.40;;;;;;;9.45;100.00;90197.75;6272539;22;20015;-76
2023/11/05 09:14:07;;;;;;;2.75;1.40;;;;;;;9.71;100.00;90196.56;6271237;22;20061;-76
2023/11/05 09:16:33;;;;;;;1.10;1.00;;;;;;;9.78;100.00;90192.25;6270893;22;20015;-77
2023/11/05 09:18:59;;;;;;;1.77;1.05;;;;;;;10.11;100.00;90185.16;6272422;22;20056;-77
2023/11/05 09:21:25;;;;;;;17.52;7.35;;;;;;;10.20;100.00;90186.53;6272664;22;20023;-77
2023/11/05 09:23:51;;;;;;;5.40;2.03;;;;;;;10.24;100.00;90191.81;6271765;22;20049;-76
2023/11/05 09:26:18;;;;;;;3.08;1.48;;;;;;;9.85;100.00;90203.97;6271207;22;20050;-77
2023/11/05 09:28:44;;;;;;;5.97;1.90;;;;;;;9.68;100.00;90195.38;6244498;22;20066;-77
2023/11/05 09:31:11;;;;;;;2.20;1.48;;;;;;;9.59;100.00;90202.59;6273333;22;20012;-76
2023/11/05 09:33:37;;;;;;;1.65;1.20;;;;;;;9.83;100.00;90206.91;6271133;22;20485;-77
2023/11/05 09:36:03;;;;;;;2.92;1.50;;;;;;;9.92;100.00;90232.91;6244984;22;20035;-76
2023/11/05 09:38:29;;;;;;;1.80;1.10;;;;;;;9.96;100.00;90233.75;6244159;22;19999;-76
2023/11/05 09:40:54;;;;;;;2.10;1.15;;;;;;;10.24;100.00;90233.66;6259774;22;20027;-76
2023/11/05 09:43:21;;;;;;;1.45;1.10;;;;;;;10.58;100.00;90232.22;6301575;22;20098;-77
2023/11/05 09:45:49;;;;;;;1.60;1.17;;;;;;;10.94;100.00;90229.59;6301672;22;20011;-77
2023/11/05 09:48:16;;;;;;;2.60;1.42;;;;;;;10.90;100.00;90237.41;6302520;22;20007;-76
2023/11/05 09:50:43;;;;;;;1.67;1.20;;;;;;;11.42;100.00;90244.03;6302430;22;20479;-76
2023/11/05 09:53:14;;;;;;;2.15;1.33;;;;;;;11.00;100.00;90236.09;6302889;22;19999;-75
2023/11/05 09:55:41;;;;;;;1.75;1.27;;;;;;;10.93;100.00;90243.81;6303006;22;20007;-75
2023/11/05 09:58:10;;;;;;;7.13;1.40;;;;;;;10.77;100.00;90249.81;6303936;22;20011;-77
2023/11/05 10:00:37;;;;;;;1.65;1.25;;;;;;;10.51;100.00;90260.81;6303314;22;20033;-73
2023/11/05 10:03:08;;;;;;;2.00;1.40;;;;;;;10.84;100.00;90273.53;6277105;22;19995;-77
2023/11/05 10:05:37;;;;;;;1.35;1.00;;;;;;;10.80;100.00;90269.31;6253479;22;20091;-75
2023/11/05 10:08:06;;;;;;;3.05;1.25;;;;;;;10.62;100.00;90269.69;6304321;22;20045;-76
2023/11/05 10:10:34;;;;;;;1.40;1.10;;;;;;;10.53;100.00;90279.56;6304613;22;20063;-76
2023/11/05 10:12:59;;;;;;;1.92;1.30;;;;;;;10.82;100.00;90280.22;6304707;22;20352;-77
2023/11/05 10:15:25;;;;;;;0.82;0.73;;;;;;;10.19;100.00;90284.34;6275965;22;20426;-77
2023/11/05 10:17:55;;;;;;;1.98;1.10;;;;;;;9.88;100.00;90294.75;6274069;22;20036;-76
2023/11/05 10:20:23;;;;;;;1.88;1.25;;;;;;;9.43;100.00;90287.97;6273954;22;20038;-77
2023/11/05 10:23:02;;;;;;;1.60;1.30;;;;;;;9.52;100.00;90291.22;6304286;22;20481;-77
2023/11/05 10:25:28;;;;;;;1.70;1.05;;;;;;;10.18;100.00;90285.44;6277021;22;20102;-75
2023/11/05 10:27:54;;;;;;;2.70;1.42;;;;;;;10.60;100.00;90278.97;6251163;22;20007;-78
2023/11/05 10:30:21;;;;;;;1.48;1.27;;;;;;;10.73;100.00;90292.72;6276863;22;20080;-77
2023/11/05 10:32:48;;;;;;;1.45;1.13;;;;;;;10.60;100.00;90294.66;6277867;22;20007;-77
2023/11/05 10:35:18;;;;;;;1.95;1.20;;;;;;;10.62;100.00;90295.84;6251331;22;20018;-77
2023/11/05 10:37:46;;;;;;;1.65;1.23;;;;;;;11.03;100.00;90301.63;6303335;22;20023;-78
2023/11/05 10:40:13;;;;;;;2.95;1.50;;;;;;;11.08;100.00;90297.97;6246317;22;20024;-76
2023/11/05 10:42:40;;;;;;;1.95;1.30;;;;;;;11.04;100.00;90312.84;6272678;22;20400;-75
2023/11/05 10:45:08;;;;;;;2.58;1.55;;;;;;;11.11;100.00;90313.00;6274663;22;20094;-78
2023/11/05 10:47:35;;;;;;;1.73;1.25;;;;;;;10.70;100.00;90314.34;6275127;22;20016;-77
2023/11/05 10:50:04;;;;;;;2.95;1.20;;;;;;;11.19;100.00;90312.06;6273009;22;20660;-78
2023/11/05 10:52:32;;;;;;;1.33;1.17;;;;;;;11.38;100.00;90319.19;6272334;22;20018;-76
2023/11/05 10:55:08;;;;;;;3.25;1.48;;;;;;;11.51;100.00;90332.91;6271481;22;20011;-76
2023/11/05 10:57:46;;;;;;;2.08;1.25;;;;;;;11.64;100.00;90320.44;6274129;22;20047;-78
2023/11/05 11:00:15;;;;;;;1.10;1.00;;;;;;;11.24;100.00;90326.75;6273910;22;20046;-76
2023/11/05 11:02:44;;;;;;;25.45;11.80;;;;;;;11.06;100.00;90315.13;6271331;22;20011;-77
2023/11/05 11:05:14;;;;;;;1.80;1.25;;;;;;;10.69;100.00;90328.50;6270521;22;20069;-77
2023/11/05 11:07:41;;;;;;;2.28;1.40;;;;;;;10.93;100.00;90306.63;6272029;22;20015;-75
2023/11/05 11:10:10;;;;;;;1.52;1.20;;;;;;;11.28;100.00;90288.31;6270960;22;19995;-76
2023/11/05 11:12:38;;;;;;;12.27;4.75;;;;;;;11.25;100.00;90323.78;6271112;22;20023;-78
2023/11/05 11:15:10;;;;;;;3.72;1.63;;;;;;;10.90;100.00;90325.59;6271288;22;20043;-76
2023/11/05 11:17:39;;;;;;;;;;;;;;;11.12;100.00;90324.97;6270676;22;20094;-77
2023/11/05 11:20:11;;;;;;;2.80;1.45;;;;;;;11.10;100.00;90339.50;6270816;22;20222;-78
2023/11/05 11:22:46;;;;;;;2.07;1.10;;;;;;;11.04;100.00;90339.03;6271812;22;20046;-76
2023/11/05 11:25:19;;;;;;;1.63;1.20;;;;;;;11.15;100.00;90313.09;6273273;22;20242;-77
2023/11/05 11:27:49;;;;;;;4.20;1.27;;;;;;;11.15;100.00;90326.94;6272166;22;20492;-77